createdAt,value
2017-05-07T00:01:05.925Z,77.55
2017-05-07T00:02:14.883Z,77.45
2017-05-07T00:03:23.841Z,77.26
2017-05-07T00:04:32.888Z,77.55
2017-05-07T00:05:42.100Z,77.45
2017-05-07T00:06:51.060Z,77.45
2017-05-07T00:08:00.356Z,77.45
2017-05-07T00:09:09.320Z,77.36
2017-05-07T00:10:18.279Z,77.45
2017-05-07T00:11:27.493Z,77.26
2017-05-07T00:12:36.447Z,77.26
2017-05-07T00:13:45.406Z,77.84
2017-05-07T00:14:54.365Z,77.36
2017-05-07T00:16:03.320Z,77.26
2017-05-07T00:17:12.530Z,77.45
2017-05-07T00:18:21.483Z,77.55
2017-05-07T00:19:30.443Z,77.17
2017-05-07T00:20:39.402Z,77.26
2017-05-07T00:21:48.368Z,77.45
2017-05-07T00:22:57.604Z,77.55
2017-05-07T00:24:06.566Z,77.36
2017-05-07T00:25:15.847Z,77.36
2017-05-07T00:26:24.810Z,77.36
2017-05-07T00:27:33.778Z,77.89
2017-05-07T00:28:42.986Z,77.42
2017-05-07T00:29:52.035Z,77.61
2017-05-07T00:31:01.005Z,78.22
2017-05-07T00:32:09.968Z,77.42
2017-05-07T00:33:18.924Z,77.84
2017-05-07T00:34:28.130Z,77.89
2017-05-07T00:35:37.088Z,77.7
2017-05-07T00:36:46.049Z,78.09
2017-05-07T00:37:55.005Z,77.89
2017-05-07T00:39:03.963Z,77.99
2017-05-07T00:40:13.173Z,77.99
2017-05-07T00:41:22.214Z,77.89
2017-05-07T00:42:31.172Z,78.09
2017-05-07T00:43:40.132Z,77.99
2017-05-07T00:44:49.096Z,77.65
2017-05-07T00:45:58.633Z,77.32
2017-05-07T00:47:07.590Z,77.8
2017-05-07T00:48:16.551Z,77.89
2017-05-07T00:49:25.601Z,77.7
2017-05-07T00:50:34.570Z,77.84
2017-05-07T00:51:43.812Z,77.84
2017-05-07T00:52:52.768Z,77.36
2017-05-07T00:54:02.085Z,77.26
2017-05-07T00:55:11.053Z,77.36
2017-05-07T00:56:20.010Z,77.36
2017-05-07T00:57:29.213Z,77.61
2017-05-07T00:58:38.263Z,77.36
2017-05-07T00:59:47.220Z,77.23
2017-05-07T01:00:56.178Z,77.42
2017-05-07T01:02:05.136Z,77.51
2017-05-07T01:03:14.351Z,77.51
2017-05-07T01:04:23.312Z,77.23
2017-05-07T01:05:32.274Z,77.03
2017-05-07T01:06:41.235Z,77.42
2017-05-07T01:07:50.196Z,77.42
2017-05-07T01:08:59.413Z,77.32
2017-05-07T01:10:08.373Z,77.32
2017-05-07T01:11:17.326Z,77.23
2017-05-07T01:12:26.279Z,77.42
2017-05-07T01:13:35.237Z,77.13
2017-05-07T01:14:44.532Z,77.61
2017-05-07T01:15:53.487Z,77.61
2017-05-07T01:17:02.531Z,77.94
2017-05-07T01:18:11.493Z,77.99
2017-05-07T01:19:20.458Z,77.99
2017-05-07T01:20:29.671Z,77.42
2017-05-07T01:21:38.633Z,77.7
2017-05-07T01:22:47.595Z,77.8
2017-05-07T01:23:56.587Z,77.8
2017-05-07T01:25:05.547Z,77.8
2017-05-07T01:26:14.762Z,77.61
2017-05-07T01:27:23.721Z,77.89
2017-05-07T01:28:32.681Z,78.28
2017-05-07T01:29:41.640Z,78.18
2017-05-07T01:30:50.592Z,78.18
2017-05-07T01:31:59.856Z,78.09
2017-05-07T01:33:08.817Z,78.94
2017-05-07T01:34:17.772Z,78.85
2017-05-07T01:35:26.736Z,78.85
2017-05-07T01:36:35.698Z,78.09
2017-05-07T01:37:44.912Z,78.28
2017-05-07T01:38:53.872Z,78.09
2017-05-07T01:40:02.930Z,78.09
2017-05-07T01:41:11.889Z,77.8
2017-05-07T01:42:20.860Z,78.09
2017-05-07T01:43:30.067Z,77.99
2017-05-07T01:44:39.023Z,78.09
2017-05-07T01:45:48.634Z,78.85
2017-05-07T01:46:59.228Z,78.56
2017-05-07T01:48:09.458Z,78.75
2017-05-07T01:49:18.809Z,78.47
2017-05-07T01:50:28.458Z,78.66
2017-05-07T01:51:37.541Z,78.85
2017-05-07T01:52:47.629Z,78.37
2017-05-07T01:53:57.825Z,78.37
2017-05-07T01:55:07.171Z,78.66
2017-05-07T01:56:16.785Z,79.08
2017-05-07T01:57:25.746Z,79.08
2017-05-07T01:58:35.441Z,78.66
2017-05-07T01:59:44.725Z,78.75
2017-05-07T02:00:54.612Z,78.75
2017-05-07T02:02:04.342Z,78.56
2017-05-07T02:03:14.338Z,78.75
2017-05-07T02:04:25.173Z,78.28
2017-05-07T02:05:35.203Z,78.75
2017-05-07T02:06:45.701Z,78.75
2017-05-07T02:07:55.844Z,78.75
2017-05-07T02:09:05.700Z,78.56
2017-05-07T02:10:14.935Z,78.47
2017-05-07T02:11:27.509Z,78.47
2017-05-07T02:12:39.075Z,78.75
2017-05-07T02:13:48.381Z,78.85
2017-05-07T02:14:58.677Z,78.28
2017-05-07T02:16:07.630Z,78.41
2017-05-07T02:17:19.385Z,78.18
2017-05-07T02:18:28.627Z,78.85
2017-05-07T02:19:38.692Z,78.66
2017-05-07T02:20:48.872Z,78.18
2017-05-07T02:21:57.915Z,78.18
2017-05-07T02:23:07.912Z,78.28
2017-05-07T02:24:18.457Z,78.28
2017-05-07T02:25:30.381Z,78.13
2017-05-07T02:26:39.335Z,78.18
2017-05-07T02:27:49.420Z,78.28
2017-05-07T02:28:58.455Z,77.8
2017-05-07T02:30:08.919Z,77.89
2017-05-07T02:31:19.339Z,78.37
2017-05-07T02:32:29.407Z,78.18
2017-05-07T02:33:39.237Z,78.37
2017-05-07T02:34:48.325Z,77.99
2017-05-07T02:36:00.494Z,78.09
2017-05-07T02:37:09.454Z,78.09
2017-05-07T02:38:20.046Z,78.18
2017-05-07T02:39:30.849Z,78.18
2017-05-07T02:40:40.874Z,78.28
2017-05-07T02:41:52.762Z,78.09
2017-05-07T02:43:01.718Z,77.84
2017-05-07T02:44:11.993Z,78.03
2017-05-07T02:45:21.352Z,78.41
2017-05-07T02:46:31.207Z,78.41
2017-05-07T02:47:41.844Z,78.31
2017-05-07T02:48:51.522Z,78.47
2017-05-07T02:50:02.645Z,78.13
2017-05-07T02:51:13.083Z,78.28
2017-05-07T02:52:24.701Z,78.37
2017-05-07T02:53:35.019Z,78.13
2017-05-07T02:54:44.062Z,78.56
2017-05-07T02:55:53.718Z,78.94
2017-05-07T02:57:02.700Z,78.94
2017-05-07T02:58:11.668Z,78.31
2017-05-07T02:59:20.874Z,77.99
2017-05-07T03:00:29.871Z,78.18
2017-05-07T03:01:40.101Z,78.41
2017-05-07T03:02:49.576Z,78.18
2017-05-07T03:03:58.661Z,78.22
2017-05-07T03:05:07.925Z,78.37
2017-05-07T03:06:17.249Z,78.37
2017-05-07T03:07:26.207Z,78.28
2017-05-07T03:08:37.903Z,78.18
2017-05-07T03:09:46.862Z,78.75
2017-05-07T03:10:57.124Z,78.28
2017-05-07T03:12:06.107Z,77.89
2017-05-07T03:13:16.639Z,77.89
2017-05-07T03:14:25.602Z,78.75
2017-05-07T03:15:35.991Z,78.56
2017-05-07T03:16:45.266Z,78.56
2017-05-07T03:17:55.119Z,78.94
2017-05-07T03:19:04.165Z,78.75
2017-05-07T03:20:14.086Z,78.75
2017-05-07T03:21:23.047Z,78.18
2017-05-07T03:22:34.324Z,78.09
2017-05-07T03:23:45.215Z,78.85
2017-05-07T03:24:54.481Z,78.37
2017-05-07T03:26:04.986Z,78.75
2017-05-07T03:27:13.945Z,78.75
2017-05-07T03:28:25.298Z,78.75
2017-05-07T03:29:34.347Z,78.09
2017-05-07T03:30:44.762Z,78.09
2017-05-07T03:31:54.718Z,78.85
2017-05-07T03:33:03.975Z,78.56
2017-05-07T03:34:15.429Z,78.75
2017-05-07T03:35:25.129Z,78.66
2017-05-07T03:36:36.434Z,78.66
2017-05-07T03:37:45.395Z,78.47
2017-05-07T03:38:55.489Z,78.66
2017-05-07T03:40:05.147Z,79.04
2017-05-07T03:41:15.304Z,79.04
2017-05-07T03:42:24.961Z,79.04
2017-05-07T03:43:33.920Z,79.04
2017-05-07T03:44:44.010Z,79.23
2017-05-07T03:45:53.572Z,79.14
2017-05-07T03:47:02.615Z,79.61
2017-05-07T03:48:11.574Z,79.52
2017-05-07T03:49:20.628Z,79.52
2017-05-07T03:50:29.580Z,79.52
2017-05-07T03:51:38.778Z,79.33
2017-05-07T03:52:47.741Z,80.38
2017-05-07T03:53:56.699Z,79.61
2017-05-07T03:55:05.657Z,79.52
2017-05-07T03:56:14.611Z,79.8
2017-05-07T03:57:23.999Z,79.52
2017-05-07T03:58:32.963Z,79.52
2017-05-07T03:59:41.967Z,79.8
2017-05-07T04:00:50.931Z,79.23
2017-05-07T04:02:00.227Z,79.33
2017-05-07T04:03:09.437Z,79.71
2017-05-07T04:04:18.401Z,79.8
2017-05-07T04:05:27.365Z,79.71
2017-05-07T04:06:36.322Z,79.33
2017-05-07T04:07:45.281Z,79.52
2017-05-07T04:08:54.534Z,79.14
2017-05-07T04:10:03.496Z,79.14
2017-05-07T04:11:12.452Z,79.23
2017-05-07T04:12:21.411Z,79.52
2017-05-07T04:13:30.377Z,79.33
2017-05-07T04:14:39.669Z,79.33
2017-05-07T04:15:48.623Z,79.04
2017-05-07T04:16:57.582Z,79.04
2017-05-07T04:18:06.676Z,79.04
2017-05-07T04:19:15.720Z,79.04
2017-05-07T04:20:24.929Z,78.94
2017-05-07T04:21:33.985Z,78.94
2017-05-07T04:22:43.031Z,78.94
2017-05-07T04:23:52.312Z,79.23
2017-05-07T04:25:01.275Z,79.33
2017-05-07T04:26:10.500Z,79.71
2017-05-07T04:27:19.454Z,79.33
2017-05-07T04:28:28.414Z,79.14
2017-05-07T04:29:37.372Z,79.33
2017-05-07T04:30:46.321Z,79.14
2017-05-07T04:31:55.617Z,79.04
2017-05-07T04:33:04.576Z,79.04
2017-05-07T04:34:13.533Z,78.47
2017-05-07T04:35:22.577Z,78.47
2017-05-07T04:36:31.540Z,78.56
2017-05-07T04:37:40.749Z,78.56
2017-05-07T04:38:49.718Z,78.66
2017-05-07T04:39:58.674Z,78.56
2017-05-07T04:41:07.716Z,78.75
2017-05-07T04:42:16.671Z,78.66
2017-05-07T04:43:40.742Z,78.85
2017-05-07T04:44:49.702Z,78.85
2017-05-07T04:45:58.660Z,78.94
2017-05-07T04:47:07.617Z,79.04
2017-05-07T04:48:16.670Z,78.85
2017-05-07T04:49:25.879Z,79.04
2017-05-07T04:50:34.867Z,79.23
2017-05-07T04:51:43.828Z,79.8
2017-05-07T04:52:52.787Z,79.61
2017-05-07T04:54:01.754Z,79.52
2017-05-07T04:55:10.963Z,79.8
2017-05-07T04:56:20.007Z,79.71
2017-05-07T04:57:28.963Z,79.43
2017-05-07T04:58:37.919Z,79.23
2017-05-07T04:59:46.877Z,79.23
2017-05-07T05:00:56.279Z,79.23
2017-05-07T05:02:05.638Z,79.61
2017-05-07T05:03:14.936Z,79.61
2017-05-07T05:04:23.892Z,79.71
2017-05-07T05:05:33.176Z,79.33
2017-05-07T05:06:42.385Z,79.23
2017-05-07T05:07:51.343Z,79.33
2017-05-07T05:09:00.633Z,79.61
2017-05-07T05:10:09.588Z,79.33
2017-05-07T05:11:19.448Z,79.33
2017-05-07T05:12:30.554Z,79.23
2017-05-07T05:13:39.516Z,79.52
2017-05-07T05:14:49.572Z,79.8
2017-05-07T05:15:59.227Z,79.04
2017-05-07T05:17:08.189Z,79.14
2017-05-07T05:18:17.425Z,79.14
2017-05-07T05:19:27.413Z,79.14
2017-05-07T05:20:38.098Z,78.47
2017-05-07T05:21:47.779Z,78.09
2017-05-07T05:22:58.074Z,78.37
2017-05-07T05:24:07.469Z,78.28
2017-05-07T05:25:19.197Z,77.99
2017-05-07T05:26:28.151Z,77.8
2017-05-07T05:27:38.710Z,77.36
2017-05-07T05:28:50.027Z,77.32
2017-05-07T05:29:59.901Z,77.17
2017-05-07T05:31:09.758Z,76.88
2017-05-07T05:32:18.712Z,77.8
2017-05-07T05:33:28.473Z,77.42
2017-05-07T05:34:37.433Z,77.42
2017-05-07T05:35:49.287Z,77.32
2017-05-07T05:36:58.240Z,77.51
2017-05-07T05:38:08.377Z,77.23
2017-05-07T05:39:18.439Z,77.51
2017-05-07T05:40:27.479Z,77.42
2017-05-07T05:41:37.984Z,77.32
2017-05-07T05:42:48.140Z,77.42
2017-05-07T05:43:58.520Z,77.51
2017-05-07T05:45:07.561Z,77.61
2017-05-07T05:46:17.271Z,78.18
2017-05-07T05:47:26.480Z,77.8
2017-05-07T05:48:36.561Z,77.32
2017-05-07T05:49:45.520Z,77.8
2017-05-07T05:50:54.876Z,77.17
2017-05-07T05:52:04.160Z,77.42
2017-05-07T05:53:15.113Z,77.13
2017-05-07T05:54:24.067Z,77.13
2017-05-07T05:55:34.143Z,77.42
2017-05-07T05:56:43.098Z,77.23
2017-05-07T05:57:53.011Z,76.94
2017-05-07T05:59:02.224Z,77.13
2017-05-07T06:00:13.256Z,77.23
2017-05-07T06:01:24.068Z,77.32
2017-05-07T06:02:34.081Z,77.03
2017-05-07T06:03:43.702Z,76.84
2017-05-07T06:04:52.978Z,76.65
2017-05-07T06:06:03.041Z,77.03
2017-05-07T06:07:12.324Z,77.08
2017-05-07T06:08:22.849Z,76.46
2017-05-07T06:09:31.806Z,76.94
2017-05-07T06:10:41.773Z,76.75
2017-05-07T06:11:50.730Z,77.13
2017-05-07T06:13:00.624Z,76.94
2017-05-07T06:14:09.581Z,76.65
2017-05-07T06:15:19.686Z,76.27
2017-05-07T06:16:28.890Z,77.13
2017-05-07T06:17:38.665Z,77.03
2017-05-07T06:18:48.937Z,76.84
2017-05-07T06:19:57.935Z,76.37
2017-05-07T06:21:08.131Z,76.56
2017-05-07T06:22:18.873Z,76.84
2017-05-07T06:23:29.097Z,76.94
2017-05-07T06:24:38.108Z,76.94
2017-05-07T06:25:47.913Z,77.13
2017-05-07T06:26:57.020Z,77.32
2017-05-07T06:28:06.553Z,77.23
2017-05-07T06:29:15.524Z,77.23
2017-05-07T06:30:25.361Z,77.42
2017-05-07T06:31:34.318Z,77.61
2017-05-07T06:32:44.103Z,77.89
2017-05-07T06:33:53.357Z,78.18
2017-05-07T06:35:04.619Z,78.94
2017-05-07T06:36:13.576Z,78.75
2017-05-07T06:37:23.738Z,78.56
2017-05-07T06:38:32.748Z,78.94
2017-05-07T06:39:44.266Z,78.94
2017-05-07T06:40:53.225Z,79.04
2017-05-07T06:42:02.697Z,79.52
2017-05-07T06:43:13.336Z,79.04
2017-05-07T06:44:22.788Z,79.04
2017-05-07T06:45:35.232Z,79.52
2017-05-07T06:46:45.402Z,79.33
2017-05-07T06:47:54.358Z,79.23
2017-05-07T06:49:04.264Z,79.04
2017-05-07T06:50:13.219Z,78.94
2017-05-07T06:51:24.537Z,79.23
2017-05-07T06:52:33.632Z,79.23
2017-05-07T06:53:44.512Z,79.14
2017-05-07T06:54:53.656Z,79.08
2017-05-07T06:56:03.130Z,78.6
2017-05-07T06:57:12.340Z,78.31
2017-05-07T06:58:21.301Z,77.84
2017-05-07T06:59:30.257Z,77.26
2017-05-07T07:00:39.213Z,77.55
2017-05-07T07:01:48.491Z,77.08
2017-05-07T07:02:57.697Z,77.17
2017-05-07T07:04:06.656Z,77.17
2017-05-07T07:05:15.610Z,77.36
2017-05-07T07:06:24.567Z,77.26
2017-05-07T07:07:33.606Z,77.36
2017-05-07T07:08:42.814Z,77.65
2017-05-07T07:09:51.774Z,77.36
2017-05-07T07:11:00.826Z,77.45
2017-05-07T07:12:10.282Z,77.45
2017-05-07T07:13:19.251Z,77.17
2017-05-07T07:14:28.894Z,77.36
2017-05-07T07:15:37.854Z,77.36
2017-05-07T07:16:46.812Z,77.45
2017-05-07T07:17:55.763Z,77.65
2017-05-07T07:19:04.726Z,77.36
2017-05-07T07:20:14.034Z,77.36
2017-05-07T07:21:22.991Z,77.26
2017-05-07T07:22:31.955Z,77.26
2017-05-07T07:23:41.928Z,77.36
2017-05-07T07:24:51.335Z,77.17
2017-05-07T07:26:00.861Z,77.26
2017-05-07T07:27:10.877Z,77.17
2017-05-07T07:28:19.858Z,77.55
2017-05-07T07:29:28.817Z,77.45
2017-05-07T07:30:37.779Z,77.08
2017-05-07T07:31:46.985Z,77.17
2017-05-07T07:32:55.943Z,77.08
2017-05-07T07:34:04.901Z,76.98
2017-05-07T07:35:13.984Z,76.6
2017-05-07T07:36:22.946Z,76.69
2017-05-07T07:37:32.158Z,76.5
2017-05-07T07:38:41.115Z,76.88
2017-05-07T07:39:50.086Z,76.98
2017-05-07T07:40:59.048Z,76.6
2017-05-07T07:42:08.343Z,76.64
2017-05-07T07:43:17.557Z,76.82
2017-05-07T07:44:26.680Z,76.16
2017-05-07T07:45:35.727Z,75.87
2017-05-07T07:46:44.767Z,75.87
2017-05-07T07:47:53.724Z,75.49
2017-05-07T07:49:02.976Z,75.1
2017-05-07T07:50:11.936Z,74.73
2017-05-07T07:51:20.913Z,74.82
2017-05-07T07:52:30.497Z,74.24
2017-05-07T07:53:39.512Z,74.28
2017-05-07T07:54:48.844Z,73.8
2017-05-07T07:55:57.861Z,73.8
2017-05-07T07:57:06.850Z,73.9
2017-05-07T07:58:15.868Z,73.52
2017-05-07T07:59:24.910Z,73.23
2017-05-07T08:00:34.300Z,73.52
2017-05-07T08:01:43.335Z,73.14
2017-05-07T08:02:52.350Z,73.14
2017-05-07T08:04:01.310Z,72.94
2017-05-07T08:05:10.354Z,72.66
2017-05-07T08:06:19.742Z,72.66
2017-05-07T08:07:28.712Z,72.08
2017-05-07T08:08:38.009Z,72.08
2017-05-07T08:09:47.179Z,71.7
2017-05-07T08:10:56.238Z,71.26
2017-05-07T08:12:05.678Z,71.83
2017-05-07T08:13:14.763Z,71.07
2017-05-07T08:14:23.725Z,71.64
2017-05-07T08:15:33.346Z,71.07
2017-05-07T08:16:42.299Z,70.53
2017-05-07T08:17:51.504Z,69.64
2017-05-07T08:19:00.471Z,69.15
2017-05-07T08:20:09.456Z,69.15
2017-05-07T08:21:18.441Z,68.87
2017-05-07T08:22:27.421Z,68.96
2017-05-07T08:23:36.651Z,68.2
2017-05-07T08:24:45.631Z,68.58
2017-05-07T08:25:54.699Z,68.33
2017-05-07T08:27:03.682Z,68.2
2017-05-07T08:28:12.665Z,67.85
2017-05-07T08:29:21.952Z,67.18
2017-05-07T08:30:31.033Z,66.8
2017-05-07T08:31:40.017Z,66.99
2017-05-07T08:32:48.995Z,66.89
2017-05-07T08:33:57.983Z,66.99
2017-05-07T08:35:07.223Z,66.89
2017-05-07T08:36:16.204Z,66.89
2017-05-07T08:37:25.254Z,67.08
2017-05-07T08:38:34.237Z,66.41
2017-05-07T08:39:43.233Z,66.13
2017-05-07T08:40:52.519Z,65.97
2017-05-07T08:42:01.499Z,65.68
2017-05-07T08:43:10.482Z,65.78
2017-05-07T08:44:19.565Z,65.01
2017-05-07T08:45:28.582Z,64.53
2017-05-07T08:46:37.874Z,63.86
2017-05-07T08:47:46.892Z,63.19
2017-05-07T08:48:55.877Z,62.43
2017-05-07T08:50:04.862Z,62.71
2017-05-07T08:51:13.932Z,61.98
2017-05-07T08:52:23.171Z,62.43
2017-05-07T08:53:32.150Z,62.62
2017-05-07T08:54:41.159Z,62.46
2017-05-07T08:55:50.577Z,62.17
2017-05-07T08:56:59.711Z,61.98
2017-05-07T08:58:09.142Z,61.02
2017-05-07T08:59:18.174Z,60.73
2017-05-07T09:00:27.148Z,60.35
2017-05-07T09:01:36.277Z,59.97
2017-05-07T09:02:45.390Z,60.06
2017-05-07T09:03:54.727Z,60.25
2017-05-07T09:05:03.859Z,60.25
2017-05-07T09:06:12.821Z,59.39
2017-05-07T09:07:21.785Z,59.01
2017-05-07T09:08:30.741Z,58.53
2017-05-07T09:09:39.957Z,57.57
2017-05-07T09:10:49.154Z,58.15
2017-05-07T09:11:58.790Z,58.15
2017-05-07T09:13:08.256Z,58.05
2017-05-07T09:14:17.215Z,57.95
2017-05-07T09:15:26.472Z,58.44
2017-05-07T09:16:36.202Z,58.44
2017-05-07T09:17:45.470Z,59.08
2017-05-07T09:18:54.692Z,59.08
2017-05-07T09:20:03.780Z,59.3
2017-05-07T09:21:13.129Z,59.36
2017-05-07T09:22:22.422Z,59.3
2017-05-07T09:23:31.384Z,59.3
2017-05-07T09:24:40.454Z,59.2
2017-05-07T09:25:49.457Z,58.91
2017-05-07T09:26:59.031Z,59.3
2017-05-07T09:28:08.019Z,59.11
2017-05-07T09:29:17.167Z,59.01
2017-05-07T09:30:26.247Z,59.01
2017-05-07T09:31:35.315Z,59.3
2017-05-07T09:32:44.712Z,59.2
2017-05-07T09:33:53.685Z,59.04
2017-05-07T09:35:02.775Z,58.84
2017-05-07T09:36:11.950Z,58.65
2017-05-07T09:37:21.037Z,58.56
2017-05-07T09:38:30.301Z,57.98
2017-05-07T09:39:39.262Z,58.56
2017-05-07T09:40:48.215Z,58.56
2017-05-07T09:41:57.170Z,57.98
2017-05-07T09:43:06.222Z,57.98
2017-05-07T09:44:15.485Z,57.31
2017-05-07T09:45:24.447Z,56.96
2017-05-07T09:46:33.500Z,57.06
2017-05-07T09:47:42.493Z,56.76
2017-05-07T09:48:51.450Z,56.29
2017-05-07T09:50:00.709Z,56.38
2017-05-07T09:51:09.689Z,56.76
2017-05-07T09:52:18.648Z,56
2017-05-07T09:53:27.611Z,55.8
2017-05-07T09:54:36.568Z,55.8
2017-05-07T09:55:45.835Z,57.08
2017-05-07T09:56:54.797Z,57.72
2017-05-07T09:58:03.760Z,58.59
2017-05-07T09:59:12.722Z,59.26
2017-05-07T10:00:21.689Z,59.55
2017-05-07T10:01:30.951Z,59.45
2017-05-07T10:02:39.926Z,60.03
2017-05-07T10:03:49.234Z,59.83
2017-05-07T10:04:58.200Z,59.74
2017-05-07T10:06:07.160Z,59.93
2017-05-07T10:07:16.428Z,59.74
2017-05-07T10:08:25.562Z,60.31
2017-05-07T10:09:34.522Z,60.12
2017-05-07T10:10:43.569Z,59.74
2017-05-07T10:11:52.540Z,59.74
2017-05-07T10:13:01.884Z,59.26
2017-05-07T10:14:10.844Z,59.26
2017-05-07T10:15:19.802Z,59.09
2017-05-07T10:16:29.090Z,58.71
2017-05-07T10:17:38.054Z,58.23
2017-05-07T10:18:47.320Z,57.18
2017-05-07T10:19:56.286Z,57.08
2017-05-07T10:21:05.247Z,56.12
2017-05-07T10:22:14.218Z,56.12
2017-05-07T10:23:23.266Z,55.83
2017-05-07T10:24:32.530Z,55.64
2017-05-07T10:25:41.489Z,56.02
2017-05-07T10:26:50.444Z,55.86
2017-05-07T10:27:59.882Z,55.38
2017-05-07T10:29:09.433Z,54.23
2017-05-07T10:30:18.694Z,54.13
2017-05-07T10:31:27.745Z,53.66
2017-05-07T10:32:36.709Z,53.46
2017-05-07T10:33:45.672Z,54.04
2017-05-07T10:34:54.724Z,53.85
2017-05-07T10:36:03.939Z,54.04
2017-05-07T10:37:12.898Z,54.13
2017-05-07T10:38:21.859Z,54.52
2017-05-07T10:39:30.819Z,54.23
2017-05-07T10:40:39.776Z,54.13
2017-05-07T10:41:48.990Z,53.94
2017-05-07T10:42:58.044Z,54.04
2017-05-07T10:44:07.092Z,54.13
2017-05-07T10:45:16.701Z,54.04
2017-05-07T10:46:25.687Z,54.04
2017-05-07T10:47:34.952Z,54.13
2017-05-07T10:48:43.912Z,53.85
2017-05-07T10:49:52.881Z,53.36
2017-05-07T10:51:01.930Z,52.69
2017-05-07T10:52:10.894Z,53.2
2017-05-07T10:53:21.303Z,52.72
2017-05-07T10:54:31.216Z,51.76
2017-05-07T10:55:40.183Z,51.37
2017-05-07T10:56:49.172Z,51.28
2017-05-07T10:57:58.132Z,50.32
2017-05-07T10:59:07.392Z,50.61
2017-05-07T11:00:16.437Z,50.99
2017-05-07T11:01:25.393Z,51.18
2017-05-07T11:02:34.352Z,51.57
2017-05-07T11:03:43.639Z,51.76
2017-05-07T11:04:52.900Z,51.67
2017-05-07T11:06:01.856Z,52.36
2017-05-07T11:07:11.143Z,52.43
2017-05-07T11:08:20.104Z,52.65
2017-05-07T11:09:29.072Z,51.88
2017-05-07T11:10:38.330Z,51.5
2017-05-07T11:11:47.293Z,51.21
2017-05-07T11:12:56.252Z,51.21
2017-05-07T11:14:05.537Z,51.11
2017-05-07T11:15:14.500Z,50.44
2017-05-07T11:16:23.768Z,50.05
2017-05-07T11:17:32.730Z,49.96
2017-05-07T11:18:41.696Z,49.48
2017-05-07T11:19:50.656Z,49.87
2017-05-07T11:20:59.618Z,50.25
2017-05-07T11:22:08.881Z,50.34
2017-05-07T11:23:17.856Z,49.96
2017-05-07T11:24:26.818Z,49.29
2017-05-07T11:25:35.784Z,49.48
2017-05-07T11:26:44.747Z,48.61
2017-05-07T11:27:54.021Z,48.33
2017-05-07T11:29:02.990Z,48.71
2017-05-07T11:30:12.040Z,48.04
2017-05-07T11:31:21.322Z,48.13
2017-05-07T11:32:30.284Z,48.16
2017-05-07T11:33:39.545Z,47.97
2017-05-07T11:34:48.508Z,47.77
2017-05-07T11:35:57.659Z,47.94
2017-05-07T11:37:06.987Z,47.66
2017-05-07T11:38:16.011Z,47.58
2017-05-07T11:39:25.618Z,47
2017-05-07T11:40:34.935Z,47
2017-05-07T11:41:44.178Z,46.91
2017-05-07T11:42:53.239Z,46.91
2017-05-07T11:44:02.379Z,46.53
2017-05-07T11:45:11.663Z,45.76
2017-05-07T11:46:20.707Z,45.95
2017-05-07T11:47:29.829Z,46.04
2017-05-07T11:48:38.811Z,45.56
2017-05-07T11:49:47.833Z,45.56
2017-05-07T11:50:57.178Z,45.87
2017-05-07T11:52:06.336Z,45.78
2017-05-07T11:53:15.424Z,45.28
2017-05-07T11:54:24.384Z,45.1
2017-05-07T11:55:33.391Z,45.68
2017-05-07T11:56:42.807Z,45.08
2017-05-07T11:57:51.895Z,45.85
2017-05-07T11:59:00.989Z,45.68
2017-05-07T12:00:09.976Z,45.78
2017-05-07T12:01:19.043Z,44.53
2017-05-07T12:02:28.566Z,44.62
2017-05-07T12:03:37.715Z,44.53
2017-05-07T12:04:46.922Z,44.72
2017-05-07T12:05:55.890Z,44.62
2017-05-07T12:07:04.853Z,44.43
2017-05-07T12:08:14.085Z,44.53
2017-05-07T12:09:23.065Z,44.34
2017-05-07T12:10:32.081Z,44.72
2017-05-07T12:11:41.062Z,45.2
2017-05-07T12:12:50.055Z,45.08
2017-05-07T12:13:59.295Z,45.1
2017-05-07T12:15:08.284Z,44.72
2017-05-07T12:16:17.273Z,45.29
2017-05-07T12:17:26.257Z,44.34
2017-05-07T12:18:35.245Z,45.08
2017-05-07T12:19:44.530Z,44.91
2017-05-07T12:20:53.517Z,45.66
2017-05-07T12:22:02.507Z,45.47
2017-05-07T12:23:11.489Z,45.37
2017-05-07T12:24:20.484Z,45.01
2017-05-07T12:25:29.764Z,44.99
2017-05-07T12:26:38.755Z,45.18
2017-05-07T12:27:47.739Z,45.08
2017-05-07T12:28:56.725Z,44.99
2017-05-07T12:30:05.708Z,44.6
2017-05-07T12:31:14.994Z,44.41
2017-05-07T12:32:23.983Z,44.6
2017-05-07T12:33:32.980Z,44.51
2017-05-07T12:34:42.264Z,43.54
2017-05-07T12:35:51.245Z,43.07
2017-05-07T12:37:00.535Z,43.26
2017-05-07T12:38:09.527Z,42.3
2017-05-07T12:39:18.845Z,42
2017-05-07T12:40:27.834Z,41.62
2017-05-07T12:41:36.821Z,41.24
2017-05-07T12:42:46.195Z,40.47
2017-05-07T12:43:55.164Z,39.41
2017-05-07T12:45:04.215Z,39.41
2017-05-07T12:46:13.185Z,39.43
2017-05-07T12:47:22.670Z,39.14
2017-05-07T12:48:32.265Z,38.26
2017-05-07T12:49:41.276Z,37.7
2017-05-07T12:50:50.263Z,37.3
2017-05-07T12:51:59.419Z,37.2
2017-05-07T12:53:08.496Z,36.24
2017-05-07T12:54:17.799Z,36.72
2017-05-07T12:55:26.790Z,38.07
2017-05-07T12:56:35.790Z,38.16
2017-05-07T12:57:44.769Z,37.87
2017-05-07T12:58:53.760Z,37.3
2017-05-07T13:00:03.055Z,37.77
2017-05-07T13:01:12.357Z,37.97
2017-05-07T13:02:21.368Z,38.16
2017-05-07T13:03:30.377Z,38.35
2017-05-07T13:04:39.603Z,38.84
2017-05-07T13:05:51.443Z,38.54
2017-05-07T13:07:05.169Z,38.74
2017-05-07T13:08:14.407Z,37.87
2017-05-07T13:09:23.365Z,37.68
2017-05-07T13:10:32.323Z,37.79
2017-05-07T13:11:41.588Z,38.45
2017-05-07T13:12:50.665Z,38.84
2017-05-07T13:13:59.631Z,38.47
2017-05-07T13:15:08.686Z,38.28
2017-05-07T13:16:17.657Z,37.89
2017-05-07T13:17:26.924Z,37.6
2017-05-07T13:18:35.899Z,37.02
2017-05-07T13:19:44.865Z,36.83
2017-05-07T13:20:53.830Z,36.25
2017-05-07T13:22:02.790Z,36.08
2017-05-07T13:23:12.048Z,35.49
2017-05-07T13:24:21.011Z,35.1
2017-05-07T13:25:29.977Z,35.3
2017-05-07T13:26:39.280Z,36.35
2017-05-07T13:27:48.242Z,36.83
2017-05-07T13:28:57.823Z,36.93
2017-05-07T13:30:06.795Z,36.54
2017-05-07T13:31:15.761Z,36.64
2017-05-07T13:32:24.727Z,37.04
2017-05-07T13:33:33.704Z,36.27
2017-05-07T13:34:43.002Z,36.27
2017-05-07T13:35:51.966Z,35.5
2017-05-07T13:37:00.932Z,34.83
2017-05-07T13:38:10.221Z,35.22
2017-05-07T13:39:19.182Z,34.64
2017-05-07T13:40:28.446Z,34.64
2017-05-07T13:41:37.406Z,34.72
2017-05-07T13:42:46.372Z,34.81
2017-05-07T13:43:55.343Z,34.81
2017-05-07T13:45:04.392Z,34.25
2017-05-07T13:46:13.659Z,33.95
2017-05-07T13:47:22.624Z,34.05
2017-05-07T13:48:31.588Z,34.25
2017-05-07T13:49:40.574Z,34.81
2017-05-07T13:50:49.540Z,34.45
2017-05-07T13:51:58.804Z,34.25
2017-05-07T13:53:07.770Z,34.06
2017-05-07T13:54:16.732Z,33.77
2017-05-07T13:55:25.691Z,33.67
2017-05-07T13:56:34.653Z,34.74
2017-05-07T13:57:43.917Z,34.45
2017-05-07T13:58:52.970Z,34.25
2017-05-07T14:00:01.934Z,34.83
2017-05-07T14:01:10.896Z,34.54
2017-05-07T14:02:19.866Z,34.16
2017-05-07T14:03:29.231Z,33.77
2017-05-07T14:04:38.192Z,33.97
2017-05-07T14:05:47.153Z,33.77
2017-05-07T14:06:56.113Z,34.35
2017-05-07T14:08:05.082Z,34.54
2017-05-07T14:09:14.345Z,33.77
2017-05-07T14:10:23.315Z,34.25
2017-05-07T14:11:32.449Z,34.25
2017-05-07T14:12:41.408Z,34.83
2017-05-07T14:13:50.420Z,35.02
2017-05-07T14:15:03.060Z,35.5
2017-05-07T14:16:16.575Z,36.08
2017-05-07T14:17:25.819Z,36.37
2017-05-07T14:18:35.141Z,36.37
2017-05-07T14:19:44.291Z,36.56
2017-05-07T14:20:53.752Z,36.56
2017-05-07T14:22:03.568Z,36.66
2017-05-07T14:23:12.617Z,36.18
2017-05-07T14:24:21.582Z,35.89
2017-05-07T14:25:30.637Z,35.7
2017-05-07T14:26:39.852Z,35.7
2017-05-07T14:27:48.814Z,36.18
2017-05-07T14:28:57.788Z,36.18
2017-05-07T14:30:06.746Z,35.89
2017-05-07T14:31:15.713Z,36.56
2017-05-07T14:32:24.979Z,36.95
2017-05-07T14:33:33.939Z,36.85
2017-05-07T14:34:42.992Z,36.76
2017-05-07T14:35:52.042Z,36.95
2017-05-07T14:37:01.004Z,36.56
2017-05-07T14:38:10.350Z,36.56
2017-05-07T14:39:19.311Z,36.95
2017-05-07T14:40:28.271Z,36.68
2017-05-07T14:41:37.230Z,36.58
2017-05-07T14:42:46.203Z,36.39
2017-05-07T14:43:55.460Z,36.39
2017-05-07T14:45:04.422Z,36.58
2017-05-07T14:46:13.384Z,36.58
2017-05-07T14:47:22.345Z,36.49
2017-05-07T14:48:31.311Z,36.29
2017-05-07T14:49:40.577Z,35.62
2017-05-07T14:50:49.543Z,35.04
2017-05-07T14:51:58.505Z,34.46
2017-05-07T14:53:07.467Z,34.46
2017-05-07T14:54:16.439Z,33.89
2017-05-07T14:55:26.033Z,33.89